Time;durP1;ratioP1;P1;durP2;ratioP2;P2;SDS_P1;SDS_P2;PMS_P1;PMS_P2;Temp;Humidity;BMP_temperature;BMP_pressure;BME280_temperature;BME280_humidity;BME280_pressure;Samples;Min_cycle;Max_cycle;Signal;HPM_P1;HPM_P2
2022/07/18 00:00:26;;;;;;;5.97;1.45;;;22.50;72.80;;;;;;4946267;28;20055;-78
2022/07/18 00:02:54;;;;;;;0.45;0.10;;;22.70;69.70;;;;;;4947955;28;20453;-78
2022/07/18 00:05:21;;;;;;;0.60;0.10;;;22.60;69.70;;;;;;4932730;29;20106;-85
2022/07/18 00:07:49;;;;;;;2.03;0.10;;;22.40;68.90;;;;;;4946283;28;20081;-85
2022/07/18 00:10:19;;;;;;;0.15;0.05;;;21.60;68.60;;;;;;4950748;28;20106;-80
2022/07/18 00:12:46;;;;;;;1.38;0.10;;;20.70;70.00;;;;;;4940602;29;20427;-82
2022/07/18 00:15:14;;;;;;;1.35;0.15;;;20.70;70.60;;;;;;4943737;28;20102;-78
2022/07/18 00:17:41;;;;;;;1.45;0.10;;;21.20;70.60;;;;;;4950232;28;20067;-83
2022/07/18 00:20:11;;;;;;;0.73;0.10;;;21.80;69.00;;;;;;4941852;28;20427;-79
2022/07/18 00:22:39;;;;;;;0.50;0.10;;;22.10;69.20;;;;;;4943767;28;20125;-85
2022/07/18 00:25:07;;;;;;;0.82;0.10;;;22.50;68.00;;;;;;4949085;28;20771;-75
2022/07/18 00:27:35;;;;;;;1.40;0.10;;;22.90;68.10;;;;;;4950602;28;20024;-76
2022/07/18 00:30:04;;;;;;;2.38;0.30;;;23.10;68.60;;;;;;4952672;29;20039;-78
2022/07/18 00:32:31;;;;;;;0.43;0.00;;;23.50;66.30;;;;;;4941782;29;20032;-82
2022/07/18 00:34:59;;;;;;;0.52;0.10;;;23.70;65.70;;;;;;4950086;29;20058;-77
2022/07/18 00:37:26;;;;;;;0.05;0.00;;;23.80;65.40;;;;;;4951128;29;20046;-77
2022/07/18 00:39:54;;;;;;;0.75;0.15;;;23.90;66.80;;;;;;4951479;28;20102;-79
2022/07/18 00:42:22;;;;;;;0.25;0.00;;;23.90;65.70;;;;;;4944605;28;20385;-76
2022/07/18 00:44:55;;;;;;;1.15;0.10;;;23.90;65.40;;;;;;4942786;28;20050;-78
2022/07/18 00:47:23;;;;;;;0.70;0.10;;;24.00;65.40;;;;;;4941949;29;20027;-83
2022/07/18 00:49:50;;;;;;;1.70;0.55;;;24.20;63.80;;;;;;4948990;29;20035;-88
2022/07/18 00:52:17;;;;;;;0.30;0.25;;;24.10;64.00;;;;;;4950069;28;20031;-88
2022/07/18 00:54:45;;;;;;;0.70;0.10;;;24.40;64.00;;;;;;4952356;29;20174;-87
2022/07/18 00:57:13;;;;;;;1.13;0.20;;;24.30;63.80;;;;;;4956398;29;20043;-88
2022/07/18 01:02:27;;;;;;;0.55;0.20;;;24.40;64.40;;;;;;4941624;28;20529;-80
2022/07/18 01:04:55;;;;;;;0.25;0.00;;;24.40;63.10;;;;;;4948010;29;20386;-89
2022/07/18 01:07:22;;;;;;;0.68;0.10;;;24.70;62.70;;;;;;4944824;29;20522;-80
2022/07/18 01:09:50;;;;;;;1.20;0.05;;;25.10;62.40;;;;;;4947417;29;20040;-85
2022/07/18 01:12:17;;;;;;;0.52;0.00;;;24.90;63.20;;;;;;4949990;29;20500;-86
2022/07/18 01:14:46;;;;;;;1.75;0.17;;;24.70;63.50;;;;;;4955158;29;20488;-86
2022/07/18 01:17:16;;;;;;;0.20;0.10;;;24.80;62.00;;;;;;4956641;29;20038;-87
2022/07/18 01:19:44;;;;;;;0.47;0.10;;;24.90;63.30;;;;;;4956357;29;20086;-81
2022/07/18 01:22:12;;;;;;;0.43;0.10;;;25.00;62.00;;;;;;4950645;29;20046;-82
2022/07/18 01:24:42;;;;;;;0.75;0.10;;;24.90;61.90;;;;;;4950885;29;20061;-81
2022/07/18 01:27:13;;;;;;;0.55;0.10;;;24.50;62.30;;;;;;4938061;29;20473;-79
2022/07/18 01:29:40;;;;;;;0.00;0.00;;;24.60;61.40;;;;;;4947073;28;20037;-81
2022/07/18 01:32:09;;;;;;;0.00;0.00;;;24.60;62.60;;;;;;4950782;28;20035;-81
2022/07/18 01:34:37;;;;;;;1.38;0.10;;;24.50;62.80;;;;;;4945233;28;20048;-82
2022/07/18 01:37:06;;;;;;;0.10;0.00;;;24.60;61.90;;;;;;4940491;28;20118;-82
2022/07/18 01:39:33;;;;;;;1.52;0.10;;;24.80;63.60;;;;;;4951437;29;20027;-82
2022/07/18 01:42:04;;;;;;;1.38;0.08;;;25.00;62.30;;;;;;4940286;28;20039;-77
2022/07/18 01:44:32;;;;;;;1.08;0.05;;;25.40;63.30;;;;;;4943255;28;20102;-81
2022/07/18 01:47:00;;;;;;;2.05;0.30;;;25.40;62.70;;;;;;4942740;28;20136;-80
2022/07/18 01:49:29;;;;;;;0.50;0.00;;;25.50;61.30;;;;;;4943734;29;20042;-80
2022/07/18 01:51:58;;;;;;;0.32;0.00;;;24.70;61.40;;;;;;4942553;29;20032;-82
2022/07/18 01:54:28;;;;;;;0.77;0.28;;;23.70;63.60;;;;;;4950945;29;20035;-82
2022/07/18 01:56:56;;;;;;;0.38;0.10;;;23.40;62.80;;;;;;4949568;28;20047;-85
2022/07/18 01:59:24;;;;;;;0.28;0.00;;;23.80;64.20;;;;;;4942632;29;20050;-78
2022/07/18 02:01:52;;;;;;;0.68;0.10;;;23.60;66.10;;;;;;4940872;29;20037;-79
2022/07/18 02:04:58;;;;;;;1.52;0.10;;;22.50;66.40;;;;;;4947855;28;20027;-80
2022/07/18 02:07:07;;;;;;;0.10;0.00;;;22.90;67.50;;;;;;4947871;28;20026;-78
2022/07/18 02:09:34;;;;;;;0.65;0.65;;;22.60;66.80;;;;;;4952109;29;20031;-76
2022/07/18 02:12:02;;;;;;;1.45;0.03;;;22.00;67.40;;;;;;4950586;29;20102;-79
2022/07/18 02:14:29;;;;;;;2.17;0.80;;;22.30;68.40;;;;;;4949530;28;20035;-80
2022/07/18 02:16:57;;;;;;;0.30;0.13;;;22.70;65.90;;;;;;4950686;29;20126;-78
2022/07/18 02:19:24;;;;;;;0.00;0.00;;;23.00;65.70;;;;;;4949026;28;20078;-80
2022/07/18 02:21:52;;;;;;;0.15;0.00;;;23.60;66.70;;;;;;4942111;29;20106;-81
2022/07/18 02:24:19;;;;;;;0.05;0.00;;;23.30;65.50;;;;;;4942576;28;20107;-78
2022/07/18 02:26:47;;;;;;;1.25;0.00;;;23.20;65.10;;;;;;4940422;29;20433;-78
2022/07/18 02:29:14;;;;;;;0.63;0.00;;;23.40;65.70;;;;;;4943160;29;20031;-79
2022/07/18 02:31:41;;;;;;;0.10;0.00;;;23.30;65.30;;;;;;4941853;29;20035;-80
2022/07/18 02:34:11;;;;;;;0.20;0.00;;;23.30;64.80;;;;;;4950775;28;20370;-79
2022/07/18 02:36:40;;;;;;;0.20;0.00;;;23.40;65.90;;;;;;4940879;28;20058;-80
2022/07/18 02:39:09;;;;;;;0.10;0.00;;;23.40;66.40;;;;;;4951291;28;20383;-84
2022/07/18 02:41:36;;;;;;;0.05;0.00;;;23.10;66.20;;;;;;4947573;29;20086;-76
2022/07/18 02:44:05;;;;;;;0.80;0.03;;;23.20;67.60;;;;;;4941548;28;20087;-80
2022/07/18 02:46:34;;;;;;;0.25;0.00;;;23.30;66.50;;;;;;4950227;29;20038;-82
2022/07/18 02:49:02;;;;;;;2.72;0.10;;;23.20;68.10;;;;;;4943172;28;20027;-77
2022/07/18 02:51:30;;;;;;;0.38;0.10;;;23.10;66.30;;;;;;4941206;29;20102;-77
2022/07/18 02:53:57;;;;;;;0.35;0.05;;;22.80;66.90;;;;;;4943237;28;20034;-77
2022/07/18 02:56:25;;;;;;;0.40;0.00;;;22.60;67.30;;;;;;4945627;28;20166;-78
2022/07/18 02:58:52;;;;;;;0.20;0.00;;;22.50;66.90;;;;;;4950246;28;20061;-78
2022/07/18 03:01:20;;;;;;;0.00;0.00;;;22.30;67.50;;;;;;4938773;28;20030;-82
2022/07/18 03:03:47;;;;;;;1.42;0.00;;;22.10;67.30;;;;;;4939978;28;20471;-76
2022/07/18 03:06:14;;;;;;;0.05;0.00;;;21.70;66.90;;;;;;4939412;29;20062;-78
2022/07/18 03:08:42;;;;;;;0.10;0.00;;;21.50;67.00;;;;;;4944300;29;20043;-76
2022/07/18 03:11:09;;;;;;;0.43;0.00;;;21.50;67.50;;;;;;4944136;29;20035;-80
2022/07/18 03:13:37;;;;;;;1.20;0.10;;;21.40;68.10;;;;;;4947584;28;20194;-84
2022/07/18 03:16:04;;;;;;;0.00;0.00;;;21.20;69.20;;;;;;4946224;29;20523;-80
2022/07/18 03:18:32;;;;;;;0.73;0.00;;;21.10;68.50;;;;;;4943556;28;20039;-79
2022/07/18 03:20:59;;;;;;;0.20;0.00;;;21.00;68.20;;;;;;4948581;29;20047;-80
2022/07/18 03:23:27;;;;;;;0.65;0.00;;;20.80;68.40;;;;;;4940684;28;20110;-80
2022/07/18 03:25:54;;;;;;;1.10;0.00;;;20.70;68.40;;;;;;4945622;29;20032;-83
2022/07/18 03:28:21;;;;;;;0.20;0.05;;;20.40;68.80;;;;;;4947970;28;20024;-80
2022/07/18 03:30:49;;;;;;;0.40;0.00;;;20.10;68.80;;;;;;4942329;29;20036;-77
2022/07/18 03:33:16;;;;;;;0.10;0.08;;;19.70;68.10;;;;;;4927673;28;20171;-80
2022/07/18 03:35:43;;;;;;;0.88;0.00;;;19.10;68.40;;;;;;4946608;29;20027;-80
2022/07/18 03:38:11;;;;;;;0.10;0.10;;;18.50;68.10;;;;;;4950979;28;20043;-87
2022/07/18 03:40:38;;;;;;;0.08;0.00;;;17.90;70.00;;;;;;4955554;29;20024;-82
2022/07/18 03:43:05;;;;;;;0.52;0.05;;;17.70;70.80;;;;;;4951558;29;20027;-84
2022/07/18 03:45:33;;;;;;;0.30;0.10;;;17.40;70.90;;;;;;4952843;28;20032;-79
2022/07/18 03:48:00;;;;;;;0.10;0.05;;;17.20;71.90;;;;;;4945610;28;20077;-80
2022/07/18 03:50:28;;;;;;;0.30;0.20;;;17.10;71.50;;;;;;4951812;28;20023;-79
2022/07/18 03:52:55;;;;;;;0.10;0.05;;;16.90;72.00;;;;;;4947362;28;20063;-79
2022/07/18 03:55:23;;;;;;;1.27;0.35;;;16.80;70.30;;;;;;4951823;28;20073;-83
2022/07/18 03:57:51;;;;;;;0.57;0.10;;;16.70;71.50;;;;;;4946011;28;20490;-79
2022/07/18 04:00:18;;;;;;;0.00;0.00;;;16.70;71.90;;;;;;4946875;29;23042;-83
2022/07/18 04:02:48;;;;;;;0.25;0.00;;;16.70;73.30;;;;;;4948965;28;20042;-84
2022/07/18 04:05:17;;;;;;;0.35;0.13;;;16.70;73.60;;;;;;4947498;28;20031;-84
2022/07/18 04:07:44;;;;;;;0.85;0.10;;;16.60;72.70;;;;;;4943343;29;20036;-87
2022/07/18 04:10:12;;;;;;;1.02;0.32;;;16.60;72.70;;;;;;4951957;28;20474;-85
2022/07/18 04:12:52;;;;;;;0.10;0.00;;;16.60;73.10;;;;;;4933067;29;20130;-84
2022/07/18 04:15:22;;;;;;;1.17;0.10;;;16.50;73.50;;;;;;4951913;29;20038;-79
2022/07/18 04:17:50;;;;;;;0.30;0.10;;;16.30;74.30;;;;;;4942061;28;20039;-80
2022/07/18 04:20:19;;;;;;;0.20;0.08;;;16.00;74.80;;;;;;4952403;29;20579;-82
2022/07/18 04:22:55;;;;;;;0.00;0.00;;;15.90;74.50;;;;;;4951650;28;20099;-80
2022/07/18 04:25:27;;;;;;;0.70;0.20;;;15.80;75.20;;;;;;4950185;28;20035;-81
2022/07/18 04:27:55;;;;;;;0.25;0.10;;;15.70;75.30;;;;;;4950672;29;20047;-79
2022/07/18 04:30:26;;;;;;;0.05;0.00;;;15.50;74.00;;;;;;4951359;29;20030;-82
2022/07/18 04:32:54;;;;;;;0.35;0.15;;;15.50;73.60;;;;;;4948845;28;20118;-78
2022/07/18 04:35:23;;;;;;;1.23;0.10;;;15.50;74.10;;;;;;4936875;29;20043;-81
2022/07/18 04:37:51;;;;;;;0.25;0.08;;;15.60;72.80;;;;;;4946437;28;20047;-80
2022/07/18 04:40:19;;;;;;;0.17;0.05;;;15.50;73.40;;;;;;4952756;28;20085;-81
2022/07/18 04:42:47;;;;;;;0.00;0.00;;;15.50;73.60;;;;;;4936501;29;20087;-84
2022/07/18 04:45:15;;;;;;;1.08;0.52;;;15.40;73.90;;;;;;4951345;28;20027;-79
2022/07/18 04:47:43;;;;;;;1.58;0.10;;;15.30;74.30;;;;;;4946617;28;20035;-80
2022/07/18 04:50:10;;;;;;;1.08;0.15;;;15.30;74.20;;;;;;4950023;28;20031;-78
2022/07/18 04:52:40;;;;;;;0.90;0.20;;;15.30;74.90;;;;;;4951042;29;20446;-78
2022/07/18 04:55:09;;;;;;;0.13;0.10;;;15.20;75.10;;;;;;4951137;29;20127;-77
2022/07/18 04:57:37;;;;;;;0.95;0.10;;;15.20;75.70;;;;;;4949554;28;20035;-77
2022/07/18 05:00:12;;;;;;;0.52;0.15;;;15.30;76.70;;;;;;4949382;28;20023;-80
2022/07/18 05:02:44;;;;;;;0.13;0.10;;;15.30;76.60;;;;;;4946352;29;20032;-82
2022/07/18 05:05:13;;;;;;;0.40;0.40;;;15.30;76.80;;;;;;4952146;29;20051;-79
2022/07/18 05:07:42;;;;;;;0.93;0.05;;;15.30;76.30;;;;;;4944270;28;20036;-79
2022/07/18 05:10:11;;;;;;;0.13;0.10;;;15.30;75.60;;;;;;4950084;28;20035;-80
2022/07/18 05:12:43;;;;;;;0.28;0.10;;;15.20;74.30;;;;;;4951207;29;20031;-80
2022/07/18 05:15:14;;;;;;;1.27;0.30;;;15.10;74.30;;;;;;4947810;29;20039;-79
2022/07/18 05:17:43;;;;;;;0.40;0.10;;;15.00;74.90;;;;;;4950819;29;20070;-77
2022/07/18 05:20:13;;;;;;;0.73;0.05;;;14.90;74.70;;;;;;4949966;28;20034;-78
2022/07/18 05:22:41;;;;;;;0.40;0.00;;;14.90;74.70;;;;;;4945084;29;20038;-77
2022/07/18 05:25:10;;;;;;;0.25;0.10;;;14.80;74.80;;;;;;4950202;28;20122;-78
2022/07/18 05:27:38;;;;;;;1.02;0.20;;;14.70;75.20;;;;;;4949700;28;20371;-76
2022/07/18 05:30:08;;;;;;;0.17;0.00;;;14.70;75.20;;;;;;4948862;29;20031;-78
2022/07/18 05:32:35;;;;;;;1.23;0.10;;;14.60;74.80;;;;;;4949852;28;20114;-76
2022/07/18 05:35:03;;;;;;;0.40;0.30;;;14.60;75.40;;;;;;4948556;29;20150;-78
2022/07/18 05:37:30;;;;;;;3.65;0.30;;;14.60;75.80;;;;;;4940571;28;20038;-77
2022/07/18 05:39:58;;;;;;;1.00;0.08;;;14.60;75.60;;;;;;4941398;29;20085;-83
2022/07/18 05:42:25;;;;;;;0.65;0.10;;;14.60;74.50;;;;;;4944825;28;20114;-80
2022/07/18 05:44:53;;;;;;;0.65;0.10;;;14.60;74.20;;;;;;4949400;28;20141;-80
2022/07/18 05:47:20;;;;;;;0.30;0.10;;;14.50;74.10;;;;;;4939706;29;20027;-84
2022/07/18 05:49:47;;;;;;;1.15;0.10;;;14.50;74.50;;;;;;4939068;29;20138;-86
2022/07/18 05:52:15;;;;;;;0.65;0.20;;;14.50;74.40;;;;;;4939258;29;20023;-82
2022/07/18 05:54:42;;;;;;;0.32;0.10;;;14.50;74.70;;;;;;4940065;29;20455;-81
2022/07/18 05:57:10;;;;;;;0.25;0.10;;;14.60;74.50;;;;;;4940268;29;20502;-84
2022/07/18 05:59:37;;;;;;;0.10;0.00;;;14.60;74.50;;;;;;4941710;29;20034;-80
2022/07/18 06:02:05;;;;;;;1.25;0.10;;;14.60;74.60;;;;;;4940211;29;20050;-85
2022/07/18 06:04:32;;;;;;;0.68;0.25;;;14.60;75.10;;;;;;4949199;28;20379;-89
2022/07/18 06:07:00;;;;;;;2.20;0.10;;;14.60;75.70;;;;;;4940972;29;20505;-82
2022/07/18 06:09:30;;;;;;;0.17;0.10;;;14.70;75.80;;;;;;4944564;29;20137;-77
2022/07/18 06:12:01;;;;;;;0.90;0.20;;;14.70;75.60;;;;;;4946914;28;20542;-77
2022/07/18 06:14:29;;;;;;;0.35;0.10;;;14.80;75.60;;;;;;4951672;29;20055;-77
2022/07/18 06:16:56;;;;;;;0.68;0.28;;;14.80;75.90;;;;;;4942613;29;20152;-78
2022/07/18 06:19:25;;;;;;;1.67;0.13;;;14.80;75.40;;;;;;4949875;29;20027;-79
2022/07/18 06:21:52;;;;;;;2.33;0.40;;;14.90;75.90;;;;;;4948258;28;20024;-79
2022/07/18 06:24:19;;;;;;;0.63;0.20;;;14.90;76.30;;;;;;4950232;28;20039;-78
2022/07/18 06:26:47;;;;;;;0.90;0.50;;;14.90;76.30;;;;;;4951013;29;20035;-78
2022/07/18 06:29:14;;;;;;;2.47;0.20;;;15.00;76.50;;;;;;4950834;29;20031;-77
2022/07/18 06:31:42;;;;;;;1.50;0.38;;;15.00;76.50;;;;;;4944510;28;20062;-78
2022/07/18 06:34:09;;;;;;;4.50;2.65;;;14.90;77.10;;;;;;4950565;28;20382;-77
2022/07/18 06:36:37;;;;;;;9.65;2.55;;;14.90;76.70;;;;;;4949677;29;20039;-77
2022/07/18 06:39:10;;;;;;;33.33;10.10;;;14.70;76.80;;;;;;4949920;28;20046;-78
2022/07/18 06:41:39;;;;;;;4.47;1.17;;;14.60;77.50;;;;;;4954868;29;20166;-79
2022/07/18 06:44:07;;;;;;;3.88;1.70;;;14.40;78.10;;;;;;4955646;28;20038;-78
2022/07/18 06:46:36;;;;;;;5.47;1.58;;;14.30;78.70;;;;;;4949887;29;20043;-77
2022/07/18 06:49:05;;;;;;;3.10;1.13;;;14.10;78.80;;;;;;4947826;29;20027;-80
2022/07/18 06:51:32;;;;;;;5.65;1.15;;;13.90;79.60;;;;;;4944304;29;20482;-79
2022/07/18 06:54:00;;;;;;;4.15;0.52;;;13.70;79.20;;;;;;4943625;28;20482;-78
2022/07/18 06:56:27;;;;;;;5.75;1.48;;;13.50;80.20;;;;;;4948282;29;20070;-78
2022/07/18 06:58:55;;;;;;;66.80;25.25;;;13.30;79.90;;;;;;4950202;29;20037;-78
2022/07/18 07:01:23;;;;;;;32.30;15.30;;;13.20;79.90;;;;;;4943718;29;20396;-78
2022/07/18 07:03:50;;;;;;;33.08;12.43;;;13.00;80.10;;;;;;4954782;28;20027;-77
2022/07/18 07:06:18;;;;;;;6.18;2.83;;;12.90;82.10;;;;;;4946296;28;20053;-78
2022/07/18 07:08:45;;;;;;;9.85;6.47;;;12.80;81.20;;;;;;4952890;28;20238;-78
2022/07/18 07:11:13;;;;;;;8.82;6.13;;;12.70;81.80;;;;;;4944881;29;20027;-79
2022/07/18 07:13:40;;;;;;;9.02;5.20;;;12.60;82.30;;;;;;4944666;29;20239;-78
2022/07/18 07:16:08;;;;;;;23.85;10.70;;;12.50;82.20;;;;;;4943111;29;20054;-79
2022/07/18 07:18:35;;;;;;;31.70;14.05;;;12.40;82.30;;;;;;4942620;28;20038;-81
2022/07/18 07:21:03;;;;;;;70.18;33.90;;;12.30;82.50;;;;;;4943103;29;20030;-81
2022/07/18 07:23:30;;;;;;;72.78;36.13;;;12.20;83.90;;;;;;4944753;29;20057;-78
2022/07/18 07:25:58;;;;;;;23.70;12.90;;;12.10;83.80;;;;;;4927446;29;20055;-79
2022/07/18 07:28:25;;;;;;;14.88;8.45;;;12.00;84.20;;;;;;4941045;29;20019;-85
2022/07/18 07:30:52;;;;;;;28.40;13.20;;;11.90;85.00;;;;;;4947781;29;20066;-76
2022/07/18 07:33:20;;;;;;;10.93;5.13;;;11.80;85.00;;;;;;4946349;28;20402;-77
2022/07/18 07:35:47;;;;;;;6.95;2.78;;;11.80;84.80;;;;;;4943882;29;20383;-79
2022/07/18 07:38:18;;;;;;;4.38;2.50;;;11.70;85.00;;;;;;4944211;29;20047;-77
2022/07/18 07:40:47;;;;;;;5.63;2.50;;;11.60;85.50;;;;;;4942217;29;20083;-79
2022/07/18 07:43:17;;;;;;;4.53;3.33;;;11.60;85.90;;;;;;4943134;29;20430;-79
2022/07/18 07:45:48;;;;;;;2.08;1.83;;;11.50;86.60;;;;;;4944725;29;20053;-79
2022/07/18 07:48:16;;;;;;;2.35;1.60;;;11.50;86.30;;;;;;4948051;29;20478;-76
2022/07/18 07:50:44;;;;;;;2.95;1.23;;;11.40;86.40;;;;;;4952589;28;20050;-80
2022/07/18 07:53:11;;;;;;;3.00;2.20;;;11.30;86.80;;;;;;4938404;29;20552;-79
2022/07/18 07:55:39;;;;;;;4.75;3.13;;;11.30;87.10;;;;;;4939880;29;20039;-81
2022/07/18 07:58:06;;;;;;;7.65;4.47;;;11.20;88.00;;;;;;4939184;29;20386;-78
2022/07/18 08:00:34;;;;;;;14.98;8.63;;;11.10;88.40;;;;;;4939550;28;20094;-80
2022/07/18 08:03:04;;;;;;;14.38;8.70;;;11.00;88.70;;;;;;4939505;29;20504;-82
2022/07/18 08:05:34;;;;;;;9.70;6.07;;;10.90;89.60;;;;;;4942570;29;20278;-81
2022/07/18 08:08:02;;;;;;;7.32;3.95;;;10.80;89.90;;;;;;4941621;29;20082;-76
2022/07/18 08:10:30;;;;;;;4.95;2.10;;;10.80;89.70;;;;;;4923935;29;20090;-81
2022/07/18 08:12:59;;;;;;;4.25;1.33;;;10.60;89.90;;;;;;4942248;29;20023;-77
2022/07/18 08:15:26;;;;;;;3.83;1.40;;;10.60;90.30;;;;;;4946012;28;20035;-76
2022/07/18 08:17:54;;;;;;;2.92;1.67;;;10.50;90.40;;;;;;4947171;29;20047;-77
2022/07/18 08:20:22;;;;;;;1.45;1.00;;;10.50;90.40;;;;;;4948332;29;20035;-77
2022/07/18 08:22:58;;;;;;;1.88;0.85;;;10.40;90.70;;;;;;4949720;29;20054;-77
2022/07/18 08:25:28;;;;;;;1.65;0.93;;;10.40;90.60;;;;;;4943174;29;20110;-77
2022/07/18 08:27:57;;;;;;;2.22;1.08;;;10.30;90.40;;;;;;4947316;29;20032;-77
2022/07/18 08:30:25;;;;;;;3.33;1.73;;;10.20;90.30;;;;;;4947129;29;20027;-79
2022/07/18 08:32:52;;;;;;;1.38;0.63;;;10.20;90.30;;;;;;4943467;28;20027;-78
2022/07/18 08:35:20;;;;;;;1.73;0.65;;;10.20;90.40;;;;;;4951648;29;20390;-78
2022/07/18 08:37:47;;;;;;;2.75;0.95;;;10.10;90.30;;;;;;4950721;28;20047;-79
2022/07/18 08:40:15;;;;;;;4.22;0.90;;;10.10;90.30;;;;;;4952775;29;20122;-77
2022/07/18 08:42:43;;;;;;;1.35;0.93;;;10.10;90.40;;;;;;4950382;29;20026;-77
2022/07/18 08:45:11;;;;;;;1.83;0.95;;;10.10;90.40;;;;;;4950918;29;20039;-78
2022/07/18 08:47:38;;;;;;;3.83;1.30;;;10.10;90.30;;;;;;4949710;29;20068;-78
2022/07/18 08:50:07;;;;;;;2.25;1.20;;;10.00;90.30;;;;;;4938210;29;20036;-78
2022/07/18 08:52:35;;;;;;;2.92;0.93;;;10.00;90.40;;;;;;4944756;29;20031;-77
2022/07/18 08:55:03;;;;;;;2.58;1.05;;;10.00;90.40;;;;;;4952351;28;20035;-77
2022/07/18 08:57:34;;;;;;;2.38;0.90;;;9.90;90.30;;;;;;4949558;29;20058;-79
2022/07/18 09:00:06;;;;;;;0.90;0.40;;;9.90;90.40;;;;;;4953276;29;20020;-78
2022/07/18 09:02:34;;;;;;;3.20;0.30;;;9.90;90.50;;;;;;4945661;28;20505;-78
2022/07/18 09:05:03;;;;;;;5.28;0.80;;;9.80;90.60;;;;;;4952264;28;20107;-79
2022/07/18 09:07:34;;;;;;;2.83;0.77;;;9.80;90.70;;;;;;4946918;29;20379;-78
2022/07/18 09:10:04;;;;;;;1.38;0.70;;;9.80;90.60;;;;;;4952100;29;20070;-80
2022/07/18 09:12:32;;;;;;;1.67;0.50;;;9.70;90.80;;;;;;4939485;28;20036;-78
2022/07/18 09:15:07;;;;;;;2.17;0.60;;;9.70;90.80;;;;;;4952065;28;20045;-78
2022/07/18 09:17:36;;;;;;;3.42;0.85;;;9.60;90.90;;;;;;4948893;29;20049;-77
2022/07/18 09:20:14;;;;;;;2.65;1.15;;;9.60;91.00;;;;;;4952021;29;20496;-78
2022/07/18 09:22:44;;;;;;;2.50;1.35;;;9.60;91.00;;;;;;4946915;29;20043;-78
2022/07/18 09:25:24;;;;;;;4.03;1.45;;;9.50;91.10;;;;;;4936162;29;20386;-78
2022/07/18 09:27:54;;;;;;;2.63;1.88;;;9.50;91.10;;;;;;4943391;29;20081;-79
2022/07/18 09:30:28;;;;;;;2.20;1.63;;;9.50;91.30;;;;;;4947690;29;20039;-78
2022/07/18 09:33:05;;;;;;;2.00;1.20;;;9.40;91.40;;;;;;4936177;29;20123;-78
2022/07/18 09:35:47;;;;;;;3.40;1.10;;;9.30;91.50;;;;;;4950779;29;20058;-78
2022/07/18 09:38:30;;;;;;;1.67;1.17;;;9.30;91.60;;;;;;4950205;29;20042;-78
2022/07/18 09:40:57;;;;;;;1.05;0.77;;;9.20;91.70;;;;;;4945236;29;20394;-78
2022/07/18 09:43:27;;;;;;;2.45;1.60;;;9.20;92.00;;;;;;4948020;28;20039;-78
2022/07/18 09:45:56;;;;;;;3.33;1.48;;;9.20;92.10;;;;;;4943420;29;20033;-79
2022/07/18 09:48:28;;;;;;;4.30;1.10;;;9.10;92.10;;;;;;4951610;29;20033;-78
2022/07/18 09:51:01;;;;;;;3.83;1.83;;;9.10;92.20;;;;;;4944394;28;20621;-77
2022/07/18 09:53:31;;;;;;;2.95;1.60;;;9.10;92.10;;;;;;4943555;28;20027;-78
2022/07/18 09:56:04;;;;;;;2.30;1.95;;;9.00;92.10;;;;;;4947428;29;20031;-78
2022/07/18 09:58:35;;;;;;;13.73;2.10;;;9.00;92.10;;;;;;4947018;29;20121;-77
2022/07/18 10:01:04;;;;;;;4.18;1.85;;;8.90;92.10;;;;;;4951059;29;20032;-78
2022/07/18 10:03:32;;;;;;;2.92;1.73;;;8.90;92.10;;;;;;4950841;29;20086;-78
2022/07/18 10:06:01;;;;;;;6.88;2.65;;;8.80;92.10;;;;;;4949317;29;20035;-77
2022/07/18 10:08:31;;;;;;;4.80;2.53;;;8.80;92.10;;;;;;4944250;29;20505;-76
2022/07/18 10:11:01;;;;;;;2.95;1.50;;;8.90;92.10;;;;;;4951404;29;20391;-78
2022/07/18 10:13:31;;;;;;;4.15;1.25;;;8.80;92.10;;;;;;4942060;28;20042;-77
2022/07/18 10:15:59;;;;;;;5.43;2.03;;;8.80;92.10;;;;;;4950448;29;20031;-78
2022/07/18 10:18:29;;;;;;;2.70;1.23;;;8.80;92.30;;;;;;4949773;29;20027;-77
2022/07/18 10:21:04;;;;;;;1.48;0.80;;;8.70;92.20;;;;;;4952294;28;20027;-77
2022/07/18 10:23:35;;;;;;;1.60;0.70;;;8.70;92.40;;;;;;4948628;29;20361;-78
2022/07/18 10:26:25;;;;;;;0.70;0.60;;;8.70;92.40;;;;;;4953973;29;20573;-79
2022/07/18 10:28:59;;;;;;;1.35;0.50;;;8.70;92.30;;;;;;4953172;29;20039;-78
2022/07/18 10:31:41;;;;;;;1.55;0.52;;;8.70;92.30;;;;;;4950652;29;20430;-77
2022/07/18 10:34:09;;;;;;;1.10;0.45;;;8.60;92.40;;;;;;4946284;28;20098;-77
2022/07/18 10:36:37;;;;;;;1.48;0.50;;;8.60;92.60;;;;;;4949746;28;20043;-76
2022/07/18 10:39:24;;;;;;;1.75;0.95;;;8.60;93.20;;;;;;4946623;28;20058;-77
2022/07/18 10:41:54;;;;;;;1.50;0.57;;;8.50;92.90;;;;;;4954458;29;20402;-77
2022/07/18 10:44:25;;;;;;;1.48;0.40;;;8.50;92.90;;;;;;4936119;29;20039;-77
2022/07/18 10:49:54;;;;;;;1.00;0.60;;;8.40;93.00;;;;;;4955551;29;20458;-78
2022/07/18 10:52:27;;;;;;;0.65;0.28;;;8.30;93.20;;;;;;4953682;29;20122;-78
2022/07/18 10:55:04;;;;;;;1.75;0.70;;;8.30;93.40;;;;;;4940841;29;20023;-78
2022/07/18 10:57:35;;;;;;;1.35;0.52;;;8.20;93.60;;;;;;4951906;29;20043;-78
2022/07/18 11:00:08;;;;;;;0.60;0.40;;;8.10;94.00;;;;;;4954888;29;20062;-78
2022/07/18 11:03:09;;;;;;;1.42;0.60;;;8.00;94.00;;;;;;4946975;29;20043;-78
2022/07/18 11:05:44;;;;;;;1.67;0.80;;;7.90;94.20;;;;;;4953880;29;20066;-77
2022/07/18 11:08:17;;;;;;;1.95;0.60;;;7.80;94.40;;;;;;4945920;29;20109;-77
2022/07/18 11:10:49;;;;;;;1.63;0.50;;;7.80;94.60;;;;;;4953247;29;20126;-77
2022/07/18 11:13:28;;;;;;;1.88;0.40;;;7.70;94.90;;;;;;4949038;29;20038;-77
2022/07/18 11:16:06;;;;;;;1.85;0.45;;;7.70;94.70;;;;;;4952679;28;20027;-77
2022/07/18 11:18:42;;;;;;;0.20;0.20;;;7.70;94.90;;;;;;4949514;28;20035;-77
2022/07/18 11:21:24;;;;;;;0.10;0.10;;;7.70;94.70;;;;;;4953350;29;20048;-77
2022/07/18 11:23:54;;;;;;;0.63;0.50;;;7.70;94.80;;;;;;4950651;29;20035;-77
2022/07/18 11:26:23;;;;;;;0.50;0.20;;;7.70;94.60;;;;;;4952564;28;20035;-77
2022/07/18 11:29:02;;;;;;;1.08;0.20;;;7.70;94.60;;;;;;4951351;28;20034;-78
2022/07/18 11:31:32;;;;;;;0.82;0.30;;;7.70;94.90;;;;;;4939194;29;20043;-78
2022/07/18 11:34:01;;;;;;;0.40;0.30;;;7.70;94.80;;;;;;4947548;28;20055;-78
2022/07/18 11:36:33;;;;;;;1.23;0.85;;;7.70;94.90;;;;;;4929375;29;20040;-78
2022/07/18 11:39:04;;;;;;;2.50;0.68;;;7.70;94.70;;;;;;4922649;29;20036;-78
2022/07/18 11:41:31;;;;;;;1.40;0.38;;;7.70;94.80;;;;;;4925000;29;20403;-77
2022/07/18 11:43:59;;;;;;;0.70;0.40;;;7.70;95.10;;;;;;4930081;29;20122;-77
2022/07/18 11:46:27;;;;;;;0.43;0.40;;;7.70;95.30;;;;;;4928235;29;20031;-78
2022/07/18 11:49:05;;;;;;;0.65;0.40;;;7.60;95.40;;;;;;4932227;29;20067;-78
2022/07/18 11:51:41;;;;;;;1.45;0.82;;;7.50;95.30;;;;;;4933732;29;20351;-77
2022/07/18 11:54:10;;;;;;;3.35;0.70;;;7.40;96.10;;;;;;4935522;29;20039;-78
2022/07/18 11:56:52;;;;;;;3.72;0.50;;;7.40;96.30;;;;;;4932614;29;20417;-77
2022/07/18 11:59:20;;;;;;;5.95;0.90;;;7.20;96.70;;;;;;4928593;29;20247;-76
2022/07/18 12:01:55;;;;;;;3.67;1.10;;;7.00;97.00;;;;;;4930410;29;20494;-78
2022/07/18 12:04:25;;;;;;;2.40;1.13;;;6.90;97.30;;;;;;4935145;29;20016;-77
2022/07/18 12:07:17;;;;;;;2.90;1.30;;;6.90;97.90;;;;;;4929382;29;20036;-78
2022/07/18 12:09:45;;;;;;;2.55;1.00;;;6.80;98.10;;;;;;4929152;29;20036;-78
2022/07/18 12:12:15;;;;;;;4.82;3.17;;;6.80;98.30;;;;;;4925743;29;20027;-78
2022/07/18 12:14:42;;;;;;;5.72;1.98;;;6.80;98.70;;;;;;4930344;29;20028;-78
2022/07/18 12:17:10;;;;;;;2.85;1.35;;;6.70;98.70;;;;;;4932214;29;20102;-77
2022/07/18 12:19:40;;;;;;;3.13;1.80;;;6.70;98.90;;;;;;4932024;29;20043;-77
2022/07/18 12:22:10;;;;;;;2.85;1.25;;;6.70;98.70;;;;;;4929553;29;20058;-77
2022/07/18 12:24:38;;;;;;;1.55;1.17;;;6.70;98.90;;;;;;4934910;29;20032;-79
2022/07/18 12:27:19;;;;;;;4.05;3.10;;;6.70;98.80;;;;;;4928956;29;20035;-77
2022/07/18 12:30:04;;;;;;;4.32;3.50;;;6.70;98.80;;;;;;4933417;29;20031;-79
2022/07/18 12:32:40;;;;;;;6.30;3.53;;;6.60;99.00;;;;;;4927381;29;20028;-78
2022/07/18 12:35:12;;;;;;;4.90;1.55;;;6.60;99.10;;;;;;4952797;29;20074;-78
2022/07/18 12:37:40;;;;;;;1.92;1.00;;;6.60;99.10;;;;;;4950199;28;20047;-77
2022/07/18 12:40:10;;;;;;;2.33;0.90;;;6.60;99.00;;;;;;4952869;29;20042;-77
2022/07/18 12:42:42;;;;;;;2.63;1.10;;;6.70;99.20;;;;;;4947100;29;20430;-77
2022/07/18 12:45:11;;;;;;;1.88;0.93;;;6.70;98.70;;;;;;4952302;29;20086;-78
2022/07/18 12:47:39;;;;;;;5.28;1.50;;;6.70;98.60;;;;;;4950538;29;20055;-78
2022/07/18 12:50:07;;;;;;;1.98;1.15;;;6.60;98.80;;;;;;4952324;29;20442;-77
2022/07/18 12:52:35;;;;;;;3.00;1.58;;;6.70;99.10;;;;;;4949620;29;20041;-77
2022/07/18 12:55:03;;;;;;;3.05;1.10;;;6.70;99.40;;;;;;4950273;29;20396;-77
2022/07/18 12:57:30;;;;;;;1.48;0.77;;;6.80;99.50;;;;;;4951203;29;20051;-78
2022/07/18 12:59:57;;;;;;;2.08;0.95;;;6.90;99.20;;;;;;4951286;29;20027;-77
2022/07/18 13:02:25;;;;;;;2.03;0.70;;;7.00;99.00;;;;;;4950378;29;20114;-77
2022/07/18 13:04:52;;;;;;;5.68;1.10;;;7.00;99.00;;;;;;4950088;28;20087;-78